sensor_id;sensor_type;location;lat;lon;timestamp;P1;durP1;ratioP1;P2;durP2;ratioP2
15637;SDS011;26604;53.596;10.042;2022-12-18T00:02:01;9.00;;;3.67;;
15637;SDS011;26604;53.596;10.042;2022-12-18T00:04:30;6.53;;;3.55;;
15637;SDS011;26604;53.596;10.042;2022-12-18T00:06:57;6.28;;;3.58;;
15637;SDS011;26604;53.596;10.042;2022-12-18T00:09:24;14.15;;;3.38;;
15637;SDS011;26604;53.596;10.042;2022-12-18T00:11:51;4.90;;;3.10;;
15637;SDS011;26604;53.596;10.042;2022-12-18T00:14:17;6.97;;;3.72;;
15637;SDS011;26604;53.596;10.042;2022-12-18T00:16:45;7.15;;;4.03;;
15637;SDS011;26604;53.596;10.042;2022-12-18T00:19:12;7.15;;;3.30;;
15637;SDS011;26604;53.596;10.042;2022-12-18T00:21:41;5.88;;;3.50;;
15637;SDS011;26604;53.596;10.042;2022-12-18T00:24:09;7.03;;;3.70;;
15637;SDS011;26604;53.596;10.042;2022-12-18T00:26:37;9.55;;;3.92;;
15637;SDS011;26604;53.596;10.042;2022-12-18T00:29:05;7.30;;;3.10;;
15637;SDS011;26604;53.596;10.042;2022-12-18T00:31:34;5.43;;;3.40;;
15637;SDS011;26604;53.596;10.042;2022-12-18T00:34:01;5.53;;;2.83;;
15637;SDS011;26604;53.596;10.042;2022-12-18T00:36:29;5.60;;;3.10;;
15637;SDS011;26604;53.596;10.042;2022-12-18T00:39:00;7.88;;;3.30;;
15637;SDS011;26604;53.596;10.042;2022-12-18T00:41:29;6.80;;;3.15;;
15637;SDS011;26604;53.596;10.042;2022-12-18T00:44:14;7.07;;;3.33;;
15637;SDS011;26604;53.596;10.042;2022-12-18T00:46:42;8.57;;;3.33;;
15637;SDS011;26604;53.596;10.042;2022-12-18T00:49:09;7.43;;;3.17;;
15637;SDS011;26604;53.596;10.042;2022-12-18T00:51:36;5.80;;;2.80;;
15637;SDS011;26604;53.596;10.042;2022-12-18T00:54:04;6.00;;;3.42;;
15637;SDS011;26604;53.596;10.042;2022-12-18T00:56:31;7.18;;;3.10;;
15637;SDS011;26604;53.596;10.042;2022-12-18T00:58:58;8.90;;;3.60;;
15637;SDS011;26604;53.596;10.042;2022-12-18T01:01:25;7.47;;;3.33;;
15637;SDS011;26604;53.596;10.042;2022-12-18T01:03:52;6.30;;;3.30;;
15637;SDS011;26604;53.596;10.042;2022-12-18T01:06:18;7.65;;;3.42;;
15637;SDS011;26604;53.596;10.042;2022-12-18T01:08:45;8.57;;;3.70;;
15637;SDS011;26604;53.596;10.042;2022-12-18T01:11:15;6.95;;;3.03;;
15637;SDS011;26604;53.596;10.042;2022-12-18T01:13:42;13.30;;;3.58;;
15637;SDS011;26604;53.596;10.042;2022-12-18T01:16:10;4.63;;;3.33;;
15637;SDS011;26604;53.596;10.042;2022-12-18T01:18:38;9.40;;;4.20;;
15637;SDS011;26604;53.596;10.042;2022-12-18T01:21:06;8.23;;;3.03;;
15637;SDS011;26604;53.596;10.042;2022-12-18T01:23:33;10.68;;;3.70;;
15637;SDS011;26604;53.596;10.042;2022-12-18T01:26:04;6.80;;;3.30;;
15637;SDS011;26604;53.596;10.042;2022-12-18T01:28:33;9.15;;;3.97;;
15637;SDS011;26604;53.596;10.042;2022-12-18T01:31:09;6.80;;;3.80;;
15637;SDS011;26604;53.596;10.042;2022-12-18T01:33:37;6.85;;;4.10;;
15637;SDS011;26604;53.596;10.042;2022-12-18T01:36:04;7.30;;;3.95;;
15637;SDS011;26604;53.596;10.042;2022-12-18T01:38:31;9.98;;;3.90;;
15637;SDS011;26604;53.596;10.042;2022-12-18T01:40:58;7.13;;;3.30;;
15637;SDS011;26604;53.596;10.042;2022-12-18T01:46:09;8.27;;;3.70;;
15637;SDS011;26604;53.596;10.042;2022-12-18T01:48:36;6.00;;;3.08;;
15637;SDS011;26604;53.596;10.042;2022-12-18T01:51:04;10.63;;;3.42;;
15637;SDS011;26604;53.596;10.042;2022-12-18T01:53:33;5.85;;;3.45;;
15637;SDS011;26604;53.596;10.042;2022-12-18T01:56:00;5.32;;;3.80;;
15637;SDS011;26604;53.596;10.042;2022-12-18T01:58:27;5.70;;;3.60;;
15637;SDS011;26604;53.596;10.042;2022-12-18T02:01:00;6.53;;;3.80;;
15637;SDS011;26604;53.596;10.042;2022-12-18T02:03:27;5.50;;;3.75;;
15637;SDS011;26604;53.596;10.042;2022-12-18T02:05:55;7.88;;;3.58;;
15637;SDS011;26604;53.596;10.042;2022-12-18T02:08:30;7.05;;;3.42;;
15637;SDS011;26604;53.596;10.042;2022-12-18T02:11:04;4.55;;;3.17;;
15637;SDS011;26604;53.596;10.042;2022-12-18T02:13:37;6.45;;;3.67;;
15637;SDS011;26604;53.596;10.042;2022-12-18T02:16:12;5.93;;;3.47;;
15637;SDS011;26604;53.596;10.042;2022-12-18T02:18:46;7.88;;;4.00;;
15637;SDS011;26604;53.596;10.042;2022-12-18T02:21:19;3.97;;;2.88;;
15637;SDS011;26604;53.596;10.042;2022-12-18T02:23:52;7.60;;;3.33;;
15637;SDS011;26604;53.596;10.042;2022-12-18T02:26:26;7.53;;;4.03;;
15637;SDS011;26604;53.596;10.042;2022-12-18T02:28:56;6.88;;;3.20;;
15637;SDS011;26604;53.596;10.042;2022-12-18T02:31:28;8.70;;;3.17;;
15637;SDS011;26604;53.596;10.042;2022-12-18T02:34:02;4.88;;;3.13;;
15637;SDS011;26604;53.596;10.042;2022-12-18T02:36:30;6.53;;;4.05;;
15637;SDS011;26604;53.596;10.042;2022-12-18T02:38:59;5.28;;;3.22;;
15637;SDS011;26604;53.596;10.042;2022-12-18T02:41:29;4.65;;;3.33;;
15637;SDS011;26604;53.596;10.042;2022-12-18T02:43:57;5.90;;;3.67;;
15637;SDS011;26604;53.596;10.042;2022-12-18T02:46:28;6.10;;;3.25;;
15637;SDS011;26604;53.596;10.042;2022-12-18T02:48:59;4.88;;;3.17;;
15637;SDS011;26604;53.596;10.042;2022-12-18T02:51:33;5.57;;;3.30;;
15637;SDS011;26604;53.596;10.042;2022-12-18T02:54:09;4.95;;;3.22;;
15637;SDS011;26604;53.596;10.042;2022-12-18T02:56:45;4.82;;;3.28;;
15637;SDS011;26604;53.596;10.042;2022-12-18T02:59:17;5.78;;;3.65;;
15637;SDS011;26604;53.596;10.042;2022-12-18T03:01:49;5.40;;;3.40;;
15637;SDS011;26604;53.596;10.042;2022-12-18T03:04:20;4.68;;;3.17;;
15637;SDS011;26604;53.596;10.042;2022-12-18T03:06:53;6.50;;;3.58;;
15637;SDS011;26604;53.596;10.042;2022-12-18T03:09:24;5.68;;;3.70;;
15637;SDS011;26604;53.596;10.042;2022-12-18T03:11:58;5.47;;;2.97;;
15637;SDS011;26604;53.596;10.042;2022-12-18T03:14:50;7.45;;;3.53;;
15637;SDS011;26604;53.596;10.042;2022-12-18T03:17:20;6.47;;;3.65;;
15637;SDS011;26604;53.596;10.042;2022-12-18T03:19:50;7.07;;;3.35;;
15637;SDS011;26604;53.596;10.042;2022-12-18T03:22:19;5.28;;;3.63;;
15637;SDS011;26604;53.596;10.042;2022-12-18T03:24:48;4.97;;;3.25;;
15637;SDS011;26604;53.596;10.042;2022-12-18T03:27:17;5.10;;;3.13;;
15637;SDS011;26604;53.596;10.042;2022-12-18T03:29:48;6.32;;;3.08;;
15637;SDS011;26604;53.596;10.042;2022-12-18T03:32:20;4.95;;;3.08;;
15637;SDS011;26604;53.596;10.042;2022-12-18T03:34:52;5.22;;;2.92;;
15637;SDS011;26604;53.596;10.042;2022-12-18T03:37:21;4.97;;;3.22;;
15637;SDS011;26604;53.596;10.042;2022-12-18T03:39:48;8.55;;;3.13;;
15637;SDS011;26604;53.596;10.042;2022-12-18T03:42:16;5.78;;;3.53;;
15637;SDS011;26604;53.596;10.042;2022-12-18T03:44:53;4.75;;;3.10;;
15637;SDS011;26604;53.596;10.042;2022-12-18T03:47:27;6.07;;;3.10;;
15637;SDS011;26604;53.596;10.042;2022-12-18T03:49:58;4.60;;;3.28;;
15637;SDS011;26604;53.596;10.042;2022-12-18T03:52:30;4.32;;;3.10;;
15637;SDS011;26604;53.596;10.042;2022-12-18T03:55:01;5.00;;;3.08;;
15637;SDS011;26604;53.596;10.042;2022-12-18T03:57:32;5.82;;;3.03;;
15637;SDS011;26604;53.596;10.042;2022-12-18T04:00:00;5.18;;;2.97;;
15637;SDS011;26604;53.596;10.042;2022-12-18T04:02:31;5.22;;;2.85;;
15637;SDS011;26604;53.596;10.042;2022-12-18T04:05:00;5.55;;;3.15;;
15637;SDS011;26604;53.596;10.042;2022-12-18T04:07:30;5.07;;;3.00;;
15637;SDS011;26604;53.596;10.042;2022-12-18T04:09:58;5.25;;;3.60;;
15637;SDS011;26604;53.596;10.042;2022-12-18T04:12:28;4.82;;;3.35;;
15637;SDS011;26604;53.596;10.042;2022-12-18T04:14:57;4.65;;;3.13;;
15637;SDS011;26604;53.596;10.042;2022-12-18T04:17:24;4.15;;;3.05;;
15637;SDS011;26604;53.596;10.042;2022-12-18T04:19:51;5.68;;;3.15;;
15637;SDS011;26604;53.596;10.042;2022-12-18T04:22:18;6.35;;;3.30;;
15637;SDS011;26604;53.596;10.042;2022-12-18T04:24:44;4.90;;;3.20;;
15637;SDS011;26604;53.596;10.042;2022-12-18T04:27:11;4.45;;;3.13;;
15637;SDS011;26604;53.596;10.042;2022-12-18T04:29:38;4.03;;;3.13;;
15637;SDS011;26604;53.596;10.042;2022-12-18T04:32:07;7.50;;;3.00;;
15637;SDS011;26604;53.596;10.042;2022-12-18T04:34:34;4.03;;;2.90;;
15637;SDS011;26604;53.596;10.042;2022-12-18T04:37:01;4.30;;;2.97;;
15637;SDS011;26604;53.596;10.042;2022-12-18T04:39:28;3.92;;;2.72;;
15637;SDS011;26604;53.596;10.042;2022-12-18T04:41:55;4.57;;;3.22;;
15637;SDS011;26604;53.596;10.042;2022-12-18T04:44:21;4.05;;;3.00;;
15637;SDS011;26604;53.596;10.042;2022-12-18T04:46:48;3.83;;;2.72;;
15637;SDS011;26604;53.596;10.042;2022-12-18T04:49:16;5.20;;;2.90;;
15637;SDS011;26604;53.596;10.042;2022-12-18T04:51:43;4.35;;;2.78;;
15637;SDS011;26604;53.596;10.042;2022-12-18T04:54:10;6.80;;;3.10;;
15637;SDS011;26604;53.596;10.042;2022-12-18T04:56:37;7.07;;;3.10;;
15637;SDS011;26604;53.596;10.042;2022-12-18T04:59:04;5.65;;;2.88;;
15637;SDS011;26604;53.596;10.042;2022-12-18T05:01:34;5.85;;;3.20;;
15637;SDS011;26604;53.596;10.042;2022-12-18T05:04:01;4.55;;;2.88;;
15637;SDS011;26604;53.596;10.042;2022-12-18T05:06:29;6.05;;;3.20;;
15637;SDS011;26604;53.596;10.042;2022-12-18T05:08:56;3.97;;;2.70;;
15637;SDS011;26604;53.596;10.042;2022-12-18T05:11:23;4.78;;;3.00;;
15637;SDS011;26604;53.596;10.042;2022-12-18T05:13:50;3.40;;;2.58;;
15637;SDS011;26604;53.596;10.042;2022-12-18T05:16:17;3.80;;;2.55;;
15637;SDS011;26604;53.596;10.042;2022-12-18T05:18:44;3.63;;;2.65;;
15637;SDS011;26604;53.596;10.042;2022-12-18T05:21:11;4.35;;;3.00;;
15637;SDS011;26604;53.596;10.042;2022-12-18T05:23:39;4.70;;;2.65;;
15637;SDS011;26604;53.596;10.042;2022-12-18T05:26:06;5.78;;;3.13;;
15637;SDS011;26604;53.596;10.042;2022-12-18T05:28:35;4.45;;;2.85;;
15637;SDS011;26604;53.596;10.042;2022-12-18T05:31:02;5.10;;;3.08;;
15637;SDS011;26604;53.596;10.042;2022-12-18T05:33:31;4.30;;;2.85;;
15637;SDS011;26604;53.596;10.042;2022-12-18T05:36:03;4.45;;;3.17;;
15637;SDS011;26604;53.596;10.042;2022-12-18T05:38:31;4.85;;;3.05;;
15637;SDS011;26604;53.596;10.042;2022-12-18T05:41:01;4.40;;;2.78;;
15637;SDS011;26604;53.596;10.042;2022-12-18T05:43:28;6.13;;;3.10;;
15637;SDS011;26604;53.596;10.042;2022-12-18T05:45:55;5.18;;;3.28;;
15637;SDS011;26604;53.596;10.042;2022-12-18T05:48:22;5.35;;;3.13;;
15637;SDS011;26604;53.596;10.042;2022-12-18T05:50:50;5.30;;;3.45;;
15637;SDS011;26604;53.596;10.042;2022-12-18T05:53:18;5.95;;;3.13;;
15637;SDS011;26604;53.596;10.042;2022-12-18T05:55:46;4.30;;;2.97;;
15637;SDS011;26604;53.596;10.042;2022-12-18T05:58:14;5.57;;;3.47;;
15637;SDS011;26604;53.596;10.042;2022-12-18T06:00:42;6.07;;;3.40;;
15637;SDS011;26604;53.596;10.042;2022-12-18T06:03:11;4.53;;;3.08;;
15637;SDS011;26604;53.596;10.042;2022-12-18T06:05:39;6.70;;;2.85;;
15637;SDS011;26604;53.596;10.042;2022-12-18T06:08:07;4.70;;;3.40;;
15637;SDS011;26604;53.596;10.042;2022-12-18T06:10:34;8.13;;;3.22;;
15637;SDS011;26604;53.596;10.042;2022-12-18T06:13:01;3.45;;;2.75;;
15637;SDS011;26604;53.596;10.042;2022-12-18T06:15:29;5.95;;;2.97;;
15637;SDS011;26604;53.596;10.042;2022-12-18T06:17:57;3.60;;;2.30;;
15637;SDS011;26604;53.596;10.042;2022-12-18T06:20:23;4.50;;;2.63;;
15637;SDS011;26604;53.596;10.042;2022-12-18T06:22:50;5.28;;;2.80;;
15637;SDS011;26604;53.596;10.042;2022-12-18T06:25:17;5.97;;;2.53;;
15637;SDS011;26604;53.596;10.042;2022-12-18T06:27:44;5.03;;;2.60;;
15637;SDS011;26604;53.596;10.042;2022-12-18T06:30:13;5.35;;;3.72;;
15637;SDS011;26604;53.596;10.042;2022-12-18T06:32:42;4.18;;;2.50;;
15637;SDS011;26604;53.596;10.042;2022-12-18T06:35:09;4.53;;;2.55;;
15637;SDS011;26604;53.596;10.042;2022-12-18T06:37:36;6.43;;;2.60;;
15637;SDS011;26604;53.596;10.042;2022-12-18T06:40:03;5.57;;;2.50;;
15637;SDS011;26604;53.596;10.042;2022-12-18T06:42:31;4.47;;;2.45;;
15637;SDS011;26604;53.596;10.042;2022-12-18T06:44:58;3.40;;;2.10;;
15637;SDS011;26604;53.596;10.042;2022-12-18T06:47:24;4.97;;;2.38;;
15637;SDS011;26604;53.596;10.042;2022-12-18T06:49:53;7.07;;;2.10;;
15637;SDS011;26604;53.596;10.042;2022-12-18T06:52:19;2.85;;;2.20;;
15637;SDS011;26604;53.596;10.042;2022-12-18T06:54:46;3.83;;;2.15;;
15637;SDS011;26604;53.596;10.042;2022-12-18T06:57:13;3.92;;;2.20;;
15637;SDS011;26604;53.596;10.042;2022-12-18T06:59:40;3.38;;;2.60;;
15637;SDS011;26604;53.596;10.042;2022-12-18T07:02:09;5.20;;;2.28;;
15637;SDS011;26604;53.596;10.042;2022-12-18T07:04:37;3.30;;;2.10;;
15637;SDS011;26604;53.596;10.042;2022-12-18T07:07:05;3.53;;;2.42;;
15637;SDS011;26604;53.596;10.042;2022-12-18T07:09:32;3.45;;;2.10;;
15637;SDS011;26604;53.596;10.042;2022-12-18T07:11:59;2.83;;;2.00;;
15637;SDS011;26604;53.596;10.042;2022-12-18T07:14:26;4.18;;;2.40;;
15637;SDS011;26604;53.596;10.042;2022-12-18T07:16:53;3.63;;;2.40;;
15637;SDS011;26604;53.596;10.042;2022-12-18T07:19:23;3.45;;;2.03;;
15637;SDS011;26604;53.596;10.042;2022-12-18T07:21:50;3.70;;;2.30;;
15637;SDS011;26604;53.596;10.042;2022-12-18T07:24:18;2.50;;;2.10;;
15637;SDS011;26604;53.596;10.042;2022-12-18T07:26:45;3.60;;;2.30;;
15637;SDS011;26604;53.596;10.042;2022-12-18T07:29:12;4.28;;;2.35;;
15637;SDS011;26604;53.596;10.042;2022-12-18T07:31:39;2.90;;;1.80;;
15637;SDS011;26604;53.596;10.042;2022-12-18T07:34:09;4.13;;;2.15;;
15637;SDS011;26604;53.596;10.042;2022-12-18T07:36:36;5.90;;;1.95;;
15637;SDS011;26604;53.596;10.042;2022-12-18T07:39:03;4.88;;;2.42;;
15637;SDS011;26604;53.596;10.042;2022-12-18T07:41:32;4.78;;;2.10;;
15637;SDS011;26604;53.596;10.042;2022-12-18T07:43:58;4.47;;;2.08;;
15637;SDS011;26604;53.596;10.042;2022-12-18T07:46:25;4.28;;;2.35;;
15637;SDS011;26604;53.596;10.042;2022-12-18T07:48:52;3.47;;;2.10;;
15637;SDS011;26604;53.596;10.042;2022-12-18T07:51:19;6.78;;;2.45;;
15637;SDS011;26604;53.596;10.042;2022-12-18T07:53:46;4.18;;;2.10;;
15637;SDS011;26604;53.596;10.042;2022-12-18T07:56:13;5.50;;;2.10;;
15637;SDS011;26604;53.596;10.042;2022-12-18T07:58:41;4.93;;;1.90;;
15637;SDS011;26604;53.596;10.042;2022-12-18T08:01:10;5.72;;;2.15;;
15637;SDS011;26604;53.596;10.042;2022-12-18T08:03:38;10.02;;;2.10;;
15637;SDS011;26604;53.596;10.042;2022-12-18T08:06:06;4.68;;;1.80;;
15637;SDS011;26604;53.596;10.042;2022-12-18T08:08:35;3.22;;;2.10;;
15637;SDS011;26604;53.596;10.042;2022-12-18T08:11:02;5.78;;;2.13;;
15637;SDS011;26604;53.596;10.042;2022-12-18T08:13:29;3.45;;;1.70;;
15637;SDS011;26604;53.596;10.042;2022-12-18T08:15:58;4.15;;;1.90;;
15637;SDS011;26604;53.596;10.042;2022-12-18T08:18:27;4.32;;;1.88;;
15637;SDS011;26604;53.596;10.042;2022-12-18T08:20:54;3.33;;;2.20;;
15637;SDS011;26604;53.596;10.042;2022-12-18T08:23:21;4.03;;;2.10;;
15637;SDS011;26604;53.596;10.042;2022-12-18T08:25:48;3.58;;;1.90;;
15637;SDS011;26604;53.596;10.042;2022-12-18T08:28:16;3.03;;;1.98;;
15637;SDS011;26604;53.596;10.042;2022-12-18T08:30:43;4.05;;;1.80;;
15637;SDS011;26604;53.596;10.042;2022-12-18T08:33:11;2.65;;;1.90;;
15637;SDS011;26604;53.596;10.042;2022-12-18T08:35:38;4.03;;;1.83;;
15637;SDS011;26604;53.596;10.042;2022-12-18T08:38:05;2.45;;;1.55;;
15637;SDS011;26604;53.596;10.042;2022-12-18T08:40:31;3.20;;;1.88;;
15637;SDS011;26604;53.596;10.042;2022-12-18T08:42:58;3.15;;;2.10;;
15637;SDS011;26604;53.596;10.042;2022-12-18T08:45:43;4.18;;;1.70;;
15637;SDS011;26604;53.596;10.042;2022-12-18T08:48:11;2.55;;;1.80;;
15637;SDS011;26604;53.596;10.042;2022-12-18T08:50:38;4.22;;;1.90;;
15637;SDS011;26604;53.596;10.042;2022-12-18T08:53:05;2.25;;;1.88;;
15637;SDS011;26604;53.596;10.042;2022-12-18T08:55:31;3.17;;;1.77;;
15637;SDS011;26604;53.596;10.042;2022-12-18T08:57:58;4.63;;;2.05;;
15637;SDS011;26604;53.596;10.042;2022-12-18T09:00:25;3.33;;;2.15;;
15637;SDS011;26604;53.596;10.042;2022-12-18T09:02:52;2.38;;;1.90;;
15637;SDS011;26604;53.596;10.042;2022-12-18T09:05:20;6.70;;;2.20;;
15637;SDS011;26604;53.596;10.042;2022-12-18T09:07:47;3.22;;;2.00;;
15637;SDS011;26604;53.596;10.042;2022-12-18T09:10:14;4.13;;;2.30;;
15637;SDS011;26604;53.596;10.042;2022-12-18T09:12:41;4.72;;;1.98;;
15637;SDS011;26604;53.596;10.042;2022-12-18T09:15:08;2.78;;;1.83;;
15637;SDS011;26604;53.596;10.042;2022-12-18T09:17:36;4.53;;;2.03;;
15637;SDS011;26604;53.596;10.042;2022-12-18T09:20:03;4.00;;;1.90;;
15637;SDS011;26604;53.596;10.042;2022-12-18T09:22:32;5.72;;;1.95;;
15637;SDS011;26604;53.596;10.042;2022-12-18T09:24:59;10.05;;;2.38;;
15637;SDS011;26604;53.596;10.042;2022-12-18T09:27:26;6.07;;;2.08;;
15637;SDS011;26604;53.596;10.042;2022-12-18T09:29:53;4.47;;;2.00;;
15637;SDS011;26604;53.596;10.042;2022-12-18T09:32:19;4.50;;;2.28;;
15637;SDS011;26604;53.596;10.042;2022-12-18T09:34:46;4.18;;;1.85;;
15637;SDS011;26604;53.596;10.042;2022-12-18T09:37:13;4.55;;;2.05;;
15637;SDS011;26604;53.596;10.042;2022-12-18T09:39:41;6.53;;;2.45;;
15637;SDS011;26604;53.596;10.042;2022-12-18T09:42:09;3.05;;;2.05;;
15637;SDS011;26604;53.596;10.042;2022-12-18T09:44:47;3.30;;;2.08;;
15637;SDS011;26604;53.596;10.042;2022-12-18T09:47:17;5.40;;;2.35;;
15637;SDS011;26604;53.596;10.042;2022-12-18T09:49:49;5.30;;;2.35;;
15637;SDS011;26604;53.596;10.042;2022-12-18T09:52:21;7.07;;;2.00;;
15637;SDS011;26604;53.596;10.042;2022-12-18T09:54:54;5.88;;;2.60;;
15637;SDS011;26604;53.596;10.042;2022-12-18T09:57:25;8.13;;;2.20;;
15637;SDS011;26604;53.596;10.042;2022-12-18T09:59:54;5.68;;;2.10;;
15637;SDS011;26604;53.596;10.042;2022-12-18T10:02:25;4.18;;;2.08;;
15637;SDS011;26604;53.596;10.042;2022-12-18T10:04:56;6.75;;;2.40;;
15637;SDS011;26604;53.596;10.042;2022-12-18T10:07:32;4.32;;;1.95;;
15637;SDS011;26604;53.596;10.042;2022-12-18T10:10:13;6.75;;;2.30;;
15637;SDS011;26604;53.596;10.042;2022-12-18T10:12:49;4.85;;;2.20;;
15637;SDS011;26604;53.596;10.042;2022-12-18T10:15:23;4.78;;;2.20;;
15637;SDS011;26604;53.596;10.042;2022-12-18T10:17:57;7.43;;;3.30;;
15637;SDS011;26604;53.596;10.042;2022-12-18T10:20:30;8.57;;;2.80;;
15637;SDS011;26604;53.596;10.042;2022-12-18T10:23:03;6.72;;;2.80;;
15637;SDS011;26604;53.596;10.042;2022-12-18T10:25:38;8.80;;;3.05;;
15637;SDS011;26604;53.596;10.042;2022-12-18T10:28:12;7.30;;;2.85;;
15637;SDS011;26604;53.596;10.042;2022-12-18T10:30:41;7.68;;;2.92;;
15637;SDS011;26604;53.596;10.042;2022-12-18T10:33:10;7.07;;;2.60;;
15637;SDS011;26604;53.596;10.042;2022-12-18T10:35:40;3.92;;;2.28;;
15637;SDS011;26604;53.596;10.042;2022-12-18T10:38:20;9.32;;;2.63;;
15637;SDS011;26604;53.596;10.042;2022-12-18T10:40:51;19.15;;;3.47;;
15637;SDS011;26604;53.596;10.042;2022-12-18T10:43:21;7.70;;;2.95;;
15637;SDS011;26604;53.596;10.042;2022-12-18T10:45:58;10.63;;;3.08;;
15637;SDS011;26604;53.596;10.042;2022-12-18T10:48:27;5.45;;;2.45;;
15637;SDS011;26604;53.596;10.042;2022-12-18T10:50:56;4.75;;;2.40;;
15637;SDS011;26604;53.596;10.042;2022-12-18T10:53:24;6.35;;;2.50;;
15637;SDS011;26604;53.596;10.042;2022-12-18T10:55:53;5.65;;;3.13;;
15637;SDS011;26604;53.596;10.042;2022-12-18T10:58:25;4.45;;;2.60;;
15637;SDS011;26604;53.596;10.042;2022-12-18T11:01:04;9.80;;;2.92;;
15637;SDS011;26604;53.596;10.042;2022-12-18T11:03:35;8.98;;;4.38;;
15637;SDS011;26604;53.596;10.042;2022-12-18T11:06:05;9.88;;;4.90;;
15637;SDS011;26604;53.596;10.042;2022-12-18T11:08:34;14.07;;;5.90;;
15637;SDS011;26604;53.596;10.042;2022-12-18T11:11:02;10.50;;;5.45;;
15637;SDS011;26604;53.596;10.042;2022-12-18T11:13:41;13.77;;;6.13;;
15637;SDS011;26604;53.596;10.042;2022-12-18T11:16:19;10.63;;;5.72;;
15637;SDS011;26604;53.596;10.042;2022-12-18T11:18:46;17.10;;;5.80;;
15637;SDS011;26604;53.596;10.042;2022-12-18T11:21:13;10.80;;;5.78;;
15637;SDS011;26604;53.596;10.042;2022-12-18T11:26:48;10.57;;;4.75;;
15637;SDS011;26604;53.596;10.042;2022-12-18T11:29:16;11.00;;;5.03;;
15637;SDS011;26604;53.596;10.042;2022-12-18T11:31:44;11.18;;;4.82;;
15637;SDS011;26604;53.596;10.042;2022-12-18T11:34:11;10.25;;;4.80;;
15637;SDS011;26604;53.596;10.042;2022-12-18T11:36:43;7.57;;;4.07;;
15637;SDS011;26604;53.596;10.042;2022-12-18T11:39:12;9.35;;;4.65;;
15637;SDS011;26604;53.596;10.042;2022-12-18T11:41:45;10.05;;;4.25;;
15637;SDS011;26604;53.596;10.042;2022-12-18T11:44:38;9.27;;;3.83;;
15637;SDS011;26604;53.596;10.042;2022-12-18T11:47:10;7.13;;;3.63;;
15637;SDS011;26604;53.596;10.042;2022-12-18T11:49:41;12.90;;;3.90;;
15637;SDS011;26604;53.596;10.042;2022-12-18T11:52:09;5.63;;;3.60;;
15637;SDS011;26604;53.596;10.042;2022-12-18T11:54:42;8.55;;;3.70;;
15637;SDS011;26604;53.596;10.042;2022-12-18T11:57:13;5.45;;;3.15;;
15637;SDS011;26604;53.596;10.042;2022-12-18T11:59:52;7.38;;;3.30;;
15637;SDS011;26604;53.596;10.042;2022-12-18T12:02:32;6.07;;;3.70;;
15637;SDS011;26604;53.596;10.042;2022-12-18T12:05:17;8.20;;;3.80;;
15637;SDS011;26604;53.596;10.042;2022-12-18T12:07:57;8.93;;;3.60;;
15637;SDS011;26604;53.596;10.042;2022-12-18T12:10:31;7.57;;;3.40;;
15637;SDS011;26604;53.596;10.042;2022-12-18T12:13:12;9.45;;;3.92;;
15637;SDS011;26604;53.596;10.042;2022-12-18T12:15:52;6.75;;;3.85;;
15637;SDS011;26604;53.596;10.042;2022-12-18T12:18:29;6.60;;;4.00;;
15637;SDS011;26604;53.596;10.042;2022-12-18T12:21:05;6.95;;;3.75;;
15637;SDS011;26604;53.596;10.042;2022-12-18T12:23:40;8.88;;;4.35;;
15637;SDS011;26604;53.596;10.042;2022-12-18T12:26:13;8.65;;;4.25;;
15637;SDS011;26604;53.596;10.042;2022-12-18T12:28:55;8.63;;;4.15;;
15637;SDS011;26604;53.596;10.042;2022-12-18T12:31:41;6.25;;;4.00;;
15637;SDS011;26604;53.596;10.042;2022-12-18T12:34:20;7.30;;;4.03;;
15637;SDS011;26604;53.596;10.042;2022-12-18T12:36:54;6.20;;;3.35;;
15637;SDS011;26604;53.596;10.042;2022-12-18T12:39:31;5.15;;;3.38;;
15637;SDS011;26604;53.596;10.042;2022-12-18T12:42:01;4.82;;;3.40;;
15637;SDS011;26604;53.596;10.042;2022-12-18T12:44:50;5.70;;;3.70;;
15637;SDS011;26604;53.596;10.042;2022-12-18T12:47:21;8.02;;;3.17;;
15637;SDS011;26604;53.596;10.042;2022-12-18T12:49:52;6.72;;;3.63;;
15637;SDS011;26604;53.596;10.042;2022-12-18T12:52:24;5.80;;;3.38;;
15637;SDS011;26604;53.596;10.042;2022-12-18T12:54:56;4.70;;;3.00;;
15637;SDS011;26604;53.596;10.042;2022-12-18T12:57:26;4.43;;;3.15;;
15637;SDS011;26604;53.596;10.042;2022-12-18T13:00:02;6.88;;;3.40;;
15637;SDS011;26604;53.596;10.042;2022-12-18T13:02:35;3.97;;;3.13;;
15637;SDS011;26604;53.596;10.042;2022-12-18T13:05:10;5.47;;;3.65;;
15637;SDS011;26604;53.596;10.042;2022-12-18T13:07:46;5.53;;;3.28;;
15637;SDS011;26604;53.596;10.042;2022-12-18T13:10:25;4.60;;;3.15;;
15637;SDS011;26604;53.596;10.042;2022-12-18T13:12:58;5.47;;;2.97;;
15637;SDS011;26604;53.596;10.042;2022-12-18T13:15:29;5.90;;;3.40;;
15637;SDS011;26604;53.596;10.042;2022-12-18T13:18:05;4.57;;;3.17;;
15637;SDS011;26604;53.596;10.042;2022-12-18T13:20:40;4.25;;;2.88;;
15637;SDS011;26604;53.596;10.042;2022-12-18T13:25:56;6.22;;;3.20;;
15637;SDS011;26604;53.596;10.042;2022-12-18T13:28:24;5.88;;;3.30;;
15637;SDS011;26604;53.596;10.042;2022-12-18T13:34:36;5.93;;;3.60;;
15637;SDS011;26604;53.596;10.042;2022-12-18T13:43:32;7.50;;;3.58;;
15637;SDS011;26604;53.596;10.042;2022-12-18T13:46:05;5.68;;;3.33;;
15637;SDS011;26604;53.596;10.042;2022-12-18T13:48:48;4.68;;;3.28;;
15637;SDS011;26604;53.596;10.042;2022-12-18T13:51:29;4.30;;;3.22;;
15637;SDS011;26604;53.596;10.042;2022-12-18T13:53:59;6.35;;;3.58;;
15637;SDS011;26604;53.596;10.042;2022-12-18T13:56:29;7.75;;;3.70;;
15637;SDS011;26604;53.596;10.042;2022-12-18T13:59:05;4.93;;;3.22;;
15637;SDS011;26604;53.596;10.042;2022-12-18T14:01:44;5.93;;;4.22;;
15637;SDS011;26604;53.596;10.042;2022-12-18T14:04:17;6.22;;;3.60;;
15637;SDS011;26604;53.596;10.042;2022-12-18T14:06:48;5.40;;;3.38;;
15637;SDS011;26604;53.596;10.042;2022-12-18T14:09:19;5.60;;;3.58;;
15637;SDS011;26604;53.596;10.042;2022-12-18T14:11:49;5.97;;;4.07;;
15637;SDS011;26604;53.596;10.042;2022-12-18T14:14:17;6.30;;;3.78;;
15637;SDS011;26604;53.596;10.042;2022-12-18T14:16:45;6.13;;;4.15;;
15637;SDS011;26604;53.596;10.042;2022-12-18T14:19:14;5.78;;;3.83;;
15637;SDS011;26604;53.596;10.042;2022-12-18T14:21:48;5.47;;;4.40;;
15637;SDS011;26604;53.596;10.042;2022-12-18T14:24:17;6.97;;;4.55;;
15637;SDS011;26604;53.596;10.042;2022-12-18T14:26:45;6.80;;;3.58;;
15637;SDS011;26604;53.596;10.042;2022-12-18T14:29:21;6.50;;;3.85;;
15637;SDS011;26604;53.596;10.042;2022-12-18T14:32:09;6.97;;;3.95;;
15637;SDS011;26604;53.596;10.042;2022-12-18T14:34:37;5.53;;;3.55;;
15637;SDS011;26604;53.596;10.042;2022-12-18T14:37:07;6.47;;;3.40;;
15637;SDS011;26604;53.596;10.042;2022-12-18T14:39:36;5.57;;;3.58;;
15637;SDS011;26604;53.596;10.042;2022-12-18T14:42:03;8.70;;;3.63;;
15637;SDS011;26604;53.596;10.042;2022-12-18T14:44:30;6.68;;;4.22;;
15637;SDS011;26604;53.596;10.042;2022-12-18T14:46:57;5.05;;;3.65;;
15637;SDS011;26604;53.596;10.042;2022-12-18T14:49:25;6.97;;;4.03;;
15637;SDS011;26604;53.596;10.042;2022-12-18T14:51:56;6.32;;;3.85;;
15637;SDS011;26604;53.596;10.042;2022-12-18T14:54:29;6.88;;;3.97;;
15637;SDS011;26604;53.596;10.042;2022-12-18T14:56:59;6.55;;;3.92;;
15637;SDS011;26604;53.596;10.042;2022-12-18T14:59:27;6.30;;;3.78;;
15637;SDS011;26604;53.596;10.042;2022-12-18T15:01:57;7.72;;;4.05;;
15637;SDS011;26604;53.596;10.042;2022-12-18T15:04:29;5.70;;;3.70;;
15637;SDS011;26604;53.596;10.042;2022-12-18T15:12:34;7.43;;;4.20;;
15637;SDS011;26604;53.596;10.042;2022-12-18T15:15:03;5.40;;;3.47;;